Contact Us:
Email: info@sawbill.com
Phone: (218)663-7150
Fax: (218)663-7980
Mail: 4620 Sawbill Trail
Box 2129
Tofte, MN 55615


Powered by
Movable Type 3.15
 
Sawbill Weather History Archives: May 2006
Current Sawbill Weather History | « April 2006 | June 2006 »


Date

High
Temperature

Low
Temperature

Barometric
Pressure

Relative
Humidity 7AM

9 AM
Temperature

Moisture

Snow

5/31/06 83 56 30.17 85% 56 .14"
5/30/06 83 54 30.24 73% 58 0
5/29/06 88 60 30.10 87% 61 .07"
5/28/06 83 60 29.93 82% 68 .68"
5/27/06 81 51 29.84 83% 64 0
5/26/06 79 47 29.85 76% 51 0
5/25/06 85 58 29.76 74% 58 0
5/24/06 75 55 29.62 84% 58 0
5/23/06 80 53 29.84 77% 55 .03"
5/22/06 72 39 30.14 39% 53 0
5/21/06 61 35 30.19 76% 39 0
5/20/06 57 34 30.05 60% 36 .09"
5/19/06 71 43 29.78 78% 46 0
5/18/06 64 41 29.72 73% 46 0
5/16/06 73 50 29.72 80% 51 .18"
5/15/06 71 49 30.03 84% 54 .11"
5/14/06 60 45 30.20 90% 50 .18"
5/13/06 52 41 30.08 88% 48 .17"
5/12/06 41 35 29.82 89% 41 .78" Trace
5/11/06 41 34 29.68 85% 35 .12" Trace
5/10/06 49 36 29.93 75% 36 .48"
5/9/06 63 49 29.67 85% 49 .77"
5/8/06 59 50 29.67 90% 52 .52"
5/7/06 63 39 29.77 62% 50 0
5/6/06 58 34 29.94 81% 38 0
5/5/06 45 30 29.95 79% 33 0 Trace
5/4/06 49 34 30.02 79% 34 Trace .25"
5/3/06 64 42 29.82 82% 42 .03"
5/2/06 59 48 29.77 91% 48 .32"
5/1/06 50 47 29.87 91% 47 .65"
 


Home I Trip Planning I Rentals and Outfitting I Reservations I Campgrounds I Sawbill Store I Sawbill News I Contact

© 1997 - 2017, Sawbill Canoe Outfitters, Inc. I Privacy Policy